sensor_id;sensor_type;location;lat;lon;timestamp;temperature;humidity
3190;DHT22;1606;51.946;10.558;2024-01-16T00:01:55;3.90;99.90
3190;DHT22;1606;51.946;10.558;2024-01-16T00:04:23;3.70;99.90
3190;DHT22;1606;51.946;10.558;2024-01-16T00:06:54;3.60;99.90
3190;DHT22;1606;51.946;10.558;2024-01-16T00:09:22;3.50;99.90
3190;DHT22;1606;51.946;10.558;2024-01-16T00:11:50;3.50;99.90
3190;DHT22;1606;51.946;10.558;2024-01-16T00:14:18;3.70;99.90
3190;DHT22;1606;51.946;10.558;2024-01-16T00:16:46;3.70;99.90
3190;DHT22;1606;51.946;10.558;2024-01-16T00:19:15;3.50;99.90
3190;DHT22;1606;51.946;10.558;2024-01-16T00:21:44;3.50;99.90
3190;DHT22;1606;51.946;10.558;2024-01-16T00:24:15;3.60;99.90
3190;DHT22;1606;51.946;10.558;2024-01-16T00:26:42;3.60;99.90
3190;DHT22;1606;51.946;10.558;2024-01-16T00:29:10;3.90;99.90
3190;DHT22;1606;51.946;10.558;2024-01-16T00:31:39;3.80;99.90
3190;DHT22;1606;51.946;10.558;2024-01-16T00:34:07;3.80;99.90
3190;DHT22;1606;51.946;10.558;2024-01-16T00:36:35;3.80;99.90
3190;DHT22;1606;51.946;10.558;2024-01-16T00:39:03;3.90;99.90
3190;DHT22;1606;51.946;10.558;2024-01-16T00:41:33;3.70;99.90
3190;DHT22;1606;51.946;10.558;2024-01-16T00:44:01;3.70;99.90
3190;DHT22;1606;51.946;10.558;2024-01-16T00:46:29;3.70;99.90
3190;DHT22;1606;51.946;10.558;2024-01-16T00:48:57;3.60;99.90
3190;DHT22;1606;51.946;10.558;2024-01-16T00:51:26;3.70;99.90
3190;DHT22;1606;51.946;10.558;2024-01-16T00:53:53;3.70;99.90
3190;DHT22;1606;51.946;10.558;2024-01-16T00:56:21;3.50;99.90
3190;DHT22;1606;51.946;10.558;2024-01-16T00:58:50;3.30;99.90
3190;DHT22;1606;51.946;10.558;2024-01-16T01:01:18;3.40;99.90
3190;DHT22;1606;51.946;10.558;2024-01-16T01:03:46;3.30;99.90
3190;DHT22;1606;51.946;10.558;2024-01-16T01:06:14;3.30;99.90
3190;DHT22;1606;51.946;10.558;2024-01-16T01:08:42;3.30;99.90
3190;DHT22;1606;51.946;10.558;2024-01-16T01:11:11;3.30;99.90
3190;DHT22;1606;51.946;10.558;2024-01-16T01:13:39;3.50;99.90
3190;DHT22;1606;51.946;10.558;2024-01-16T01:16:08;3.60;99.90
3190;DHT22;1606;51.946;10.558;2024-01-16T01:18:36;3.70;99.90
3190;DHT22;1606;51.946;10.558;2024-01-16T01:21:04;3.70;99.90
3190;DHT22;1606;51.946;10.558;2024-01-16T01:23:32;3.30;99.90
3190;DHT22;1606;51.946;10.558;2024-01-16T01:26:00;3.40;99.90
3190;DHT22;1606;51.946;10.558;2024-01-16T01:28:28;3.40;99.90
3190;DHT22;1606;51.946;10.558;2024-01-16T01:30:56;3.50;99.90
3190;DHT22;1606;51.946;10.558;2024-01-16T01:33:25;3.60;99.90
3190;DHT22;1606;51.946;10.558;2024-01-16T01:35:53;3.60;99.90
3190;DHT22;1606;51.946;10.558;2024-01-16T01:38:22;3.60;99.90
3190;DHT22;1606;51.946;10.558;2024-01-16T01:40:50;3.40;99.90
3190;DHT22;1606;51.946;10.558;2024-01-16T01:43:20;3.60;99.90
3190;DHT22;1606;51.946;10.558;2024-01-16T01:45:59;3.90;99.90
3190;DHT22;1606;51.946;10.558;2024-01-16T01:48:32;3.70;99.90
3190;DHT22;1606;51.946;10.558;2024-01-16T01:51:01;3.70;99.90
3190;DHT22;1606;51.946;10.558;2024-01-16T01:53:31;3.70;99.90
3190;DHT22;1606;51.946;10.558;2024-01-16T01:56:00;3.50;99.90
3190;DHT22;1606;51.946;10.558;2024-01-16T01:58:29;3.50;99.90
3190;DHT22;1606;51.946;10.558;2024-01-16T02:00:57;3.40;99.90
3190;DHT22;1606;51.946;10.558;2024-01-16T02:03:27;3.50;99.90
3190;DHT22;1606;51.946;10.558;2024-01-16T02:05:57;3.30;99.90
3190;DHT22;1606;51.946;10.558;2024-01-16T02:08:26;3.60;99.90
3190;DHT22;1606;51.946;10.558;2024-01-16T02:10:54;3.70;99.90
3190;DHT22;1606;51.946;10.558;2024-01-16T02:13:21;3.80;99.90
3190;DHT22;1606;51.946;10.558;2024-01-16T02:15:50;3.90;99.90
3190;DHT22;1606;51.946;10.558;2024-01-16T02:18:18;3.80;99.90
3190;DHT22;1606;51.946;10.558;2024-01-16T02:20:47;3.50;99.90
3190;DHT22;1606;51.946;10.558;2024-01-16T02:23:21;3.30;99.90
3190;DHT22;1606;51.946;10.558;2024-01-16T02:25:54;3.40;99.90
3190;DHT22;1606;51.946;10.558;2024-01-16T02:28:22;3.30;99.90
3190;DHT22;1606;51.946;10.558;2024-01-16T02:30:51;3.50;99.90
3190;DHT22;1606;51.946;10.558;2024-01-16T02:33:19;3.50;99.90
3190;DHT22;1606;51.946;10.558;2024-01-16T02:35:47;3.50;99.90
3190;DHT22;1606;51.946;10.558;2024-01-16T02:38:15;3.40;99.90
3190;DHT22;1606;51.946;10.558;2024-01-16T02:40:44;3.50;99.90
3190;DHT22;1606;51.946;10.558;2024-01-16T02:43:12;3.40;99.90
3190;DHT22;1606;51.946;10.558;2024-01-16T02:45:40;3.50;99.90
3190;DHT22;1606;51.946;10.558;2024-01-16T02:48:08;3.90;99.90
3190;DHT22;1606;51.946;10.558;2024-01-16T02:50:36;3.70;99.90
3190;DHT22;1606;51.946;10.558;2024-01-16T02:53:05;3.60;99.90
3190;DHT22;1606;51.946;10.558;2024-01-16T02:55:33;3.20;99.90
3190;DHT22;1606;51.946;10.558;2024-01-16T02:58:02;3.00;99.90
3190;DHT22;1606;51.946;10.558;2024-01-16T03:00:30;3.30;99.90
3190;DHT22;1606;51.946;10.558;2024-01-16T03:02:59;3.40;99.90
3190;DHT22;1606;51.946;10.558;2024-01-16T03:05:26;3.40;99.90
3190;DHT22;1606;51.946;10.558;2024-01-16T03:07:54;3.30;99.90
3190;DHT22;1606;51.946;10.558;2024-01-16T03:10:22;3.20;99.90
3190;DHT22;1606;51.946;10.558;2024-01-16T03:12:50;3.30;99.90
3190;DHT22;1606;51.946;10.558;2024-01-16T03:15:19;3.50;99.90
3190;DHT22;1606;51.946;10.558;2024-01-16T03:17:47;3.40;99.90
3190;DHT22;1606;51.946;10.558;2024-01-16T03:20:16;3.10;99.90
3190;DHT22;1606;51.946;10.558;2024-01-16T03:22:45;3.00;99.90
3190;DHT22;1606;51.946;10.558;2024-01-16T03:25:13;3.40;99.90
3190;DHT22;1606;51.946;10.558;2024-01-16T03:27:41;3.30;99.90
3190;DHT22;1606;51.946;10.558;2024-01-16T03:30:09;3.50;99.90
3190;DHT22;1606;51.946;10.558;2024-01-16T03:32:39;3.50;99.90
3190;DHT22;1606;51.946;10.558;2024-01-16T03:35:07;3.40;99.90
3190;DHT22;1606;51.946;10.558;2024-01-16T03:37:35;3.40;99.90
3190;DHT22;1606;51.946;10.558;2024-01-16T03:40:06;3.00;99.90
3190;DHT22;1606;51.946;10.558;2024-01-16T03:42:34;3.30;99.90
3190;DHT22;1606;51.946;10.558;2024-01-16T03:45:02;3.20;99.90
3190;DHT22;1606;51.946;10.558;2024-01-16T03:47:29;3.40;99.90
3190;DHT22;1606;51.946;10.558;2024-01-16T03:49:59;3.30;99.90
3190;DHT22;1606;51.946;10.558;2024-01-16T03:52:26;3.10;99.90
3190;DHT22;1606;51.946;10.558;2024-01-16T03:54:54;3.20;99.90
3190;DHT22;1606;51.946;10.558;2024-01-16T03:57:22;3.00;99.90
3190;DHT22;1606;51.946;10.558;2024-01-16T03:59:51;3.20;99.90
3190;DHT22;1606;51.946;10.558;2024-01-16T04:02:19;3.20;99.90
3190;DHT22;1606;51.946;10.558;2024-01-16T04:04:47;3.20;99.90
3190;DHT22;1606;51.946;10.558;2024-01-16T04:07:16;3.20;99.90
3190;DHT22;1606;51.946;10.558;2024-01-16T04:09:44;3.10;99.90
3190;DHT22;1606;51.946;10.558;2024-01-16T04:12:12;2.90;99.90
3190;DHT22;1606;51.946;10.558;2024-01-16T04:14:40;3.00;99.90
3190;DHT22;1606;51.946;10.558;2024-01-16T04:17:08;3.20;99.90
3190;DHT22;1606;51.946;10.558;2024-01-16T04:19:36;3.40;99.90
3190;DHT22;1606;51.946;10.558;2024-01-16T04:22:04;3.60;99.90
3190;DHT22;1606;51.946;10.558;2024-01-16T04:24:33;3.70;99.90
3190;DHT22;1606;51.946;10.558;2024-01-16T04:27:02;3.40;99.90
3190;DHT22;1606;51.946;10.558;2024-01-16T04:29:30;3.20;99.90
3190;DHT22;1606;51.946;10.558;2024-01-16T04:31:58;3.40;99.90
3190;DHT22;1606;51.946;10.558;2024-01-16T04:34:26;3.60;99.90
3190;DHT22;1606;51.946;10.558;2024-01-16T04:36:54;3.40;99.90
3190;DHT22;1606;51.946;10.558;2024-01-16T04:39:22;3.50;99.90
3190;DHT22;1606;51.946;10.558;2024-01-16T04:41:51;3.50;99.90
3190;DHT22;1606;51.946;10.558;2024-01-16T04:44:19;3.50;99.90
3190;DHT22;1606;51.946;10.558;2024-01-16T04:46:47;3.40;99.90
3190;DHT22;1606;51.946;10.558;2024-01-16T04:49:15;3.70;99.90
3190;DHT22;1606;51.946;10.558;2024-01-16T04:51:43;3.90;99.90
3190;DHT22;1606;51.946;10.558;2024-01-16T04:54:11;3.80;99.90
3190;DHT22;1606;51.946;10.558;2024-01-16T04:56:39;3.30;99.90
3190;DHT22;1606;51.946;10.558;2024-01-16T04:59:08;3.40;99.90
3190;DHT22;1606;51.946;10.558;2024-01-16T05:01:37;3.10;99.90
3190;DHT22;1606;51.946;10.558;2024-01-16T05:04:05;3.20;99.90
3190;DHT22;1606;51.946;10.558;2024-01-16T05:06:34;3.40;99.90
3190;DHT22;1606;51.946;10.558;2024-01-16T05:09:02;3.50;99.90
3190;DHT22;1606;51.946;10.558;2024-01-16T05:11:30;3.40;99.90
3190;DHT22;1606;51.946;10.558;2024-01-16T05:13:58;3.30;99.90
3190;DHT22;1606;51.946;10.558;2024-01-16T05:16:27;3.00;99.90
3190;DHT22;1606;51.946;10.558;2024-01-16T05:18:55;3.30;99.90
3190;DHT22;1606;51.946;10.558;2024-01-16T05:21:26;3.40;99.90
3190;DHT22;1606;51.946;10.558;2024-01-16T05:23:54;3.30;99.90
3190;DHT22;1606;51.946;10.558;2024-01-16T05:26:22;3.30;99.90
3190;DHT22;1606;51.946;10.558;2024-01-16T05:28:50;3.20;99.90
3190;DHT22;1606;51.946;10.558;2024-01-16T05:31:18;3.40;99.90
3190;DHT22;1606;51.946;10.558;2024-01-16T05:33:48;3.30;99.90
3190;DHT22;1606;51.946;10.558;2024-01-16T05:36:16;2.90;99.90
3190;DHT22;1606;51.946;10.558;2024-01-16T05:38:44;3.10;99.90
3190;DHT22;1606;51.946;10.558;2024-01-16T05:41:15;3.40;99.90
3190;DHT22;1606;51.946;10.558;2024-01-16T05:43:43;3.40;99.90
3190;DHT22;1606;51.946;10.558;2024-01-16T05:46:11;3.60;99.90
3190;DHT22;1606;51.946;10.558;2024-01-16T05:48:39;3.70;99.90
3190;DHT22;1606;51.946;10.558;2024-01-16T05:51:08;3.60;99.90
3190;DHT22;1606;51.946;10.558;2024-01-16T05:53:36;3.50;99.90
3190;DHT22;1606;51.946;10.558;2024-01-16T05:56:05;3.30;99.90
3190;DHT22;1606;51.946;10.558;2024-01-16T05:58:34;3.40;99.90
3190;DHT22;1606;51.946;10.558;2024-01-16T06:01:05;3.30;99.90
3190;DHT22;1606;51.946;10.558;2024-01-16T06:03:33;3.40;99.90
3190;DHT22;1606;51.946;10.558;2024-01-16T06:06:01;3.50;99.90
3190;DHT22;1606;51.946;10.558;2024-01-16T06:08:30;3.70;99.90
3190;DHT22;1606;51.946;10.558;2024-01-16T06:10:58;3.50;99.90
3190;DHT22;1606;51.946;10.558;2024-01-16T06:13:26;3.30;99.90
3190;DHT22;1606;51.946;10.558;2024-01-16T06:15:55;3.30;99.90
3190;DHT22;1606;51.946;10.558;2024-01-16T06:18:23;3.10;99.90
3190;DHT22;1606;51.946;10.558;2024-01-16T06:20:51;3.00;99.90
3190;DHT22;1606;51.946;10.558;2024-01-16T06:23:19;3.00;99.90
3190;DHT22;1606;51.946;10.558;2024-01-16T06:25:48;3.00;99.90
3190;DHT22;1606;51.946;10.558;2024-01-16T06:28:17;3.20;99.90
3190;DHT22;1606;51.946;10.558;2024-01-16T06:30:45;3.30;99.90
3190;DHT22;1606;51.946;10.558;2024-01-16T06:33:12;3.10;99.90
3190;DHT22;1606;51.946;10.558;2024-01-16T06:35:41;3.10;99.90
3190;DHT22;1606;51.946;10.558;2024-01-16T06:38:09;3.20;99.90
3190;DHT22;1606;51.946;10.558;2024-01-16T06:40:37;3.20;99.90
3190;DHT22;1606;51.946;10.558;2024-01-16T06:43:06;3.40;99.90
3190;DHT22;1606;51.946;10.558;2024-01-16T06:45:34;3.00;99.90
3190;DHT22;1606;51.946;10.558;2024-01-16T06:48:02;3.10;99.90
3190;DHT22;1606;51.946;10.558;2024-01-16T06:50:30;3.50;99.90
3190;DHT22;1606;51.946;10.558;2024-01-16T06:52:58;3.60;99.90
3190;DHT22;1606;51.946;10.558;2024-01-16T06:55:26;3.20;99.90
3190;DHT22;1606;51.946;10.558;2024-01-16T06:57:54;3.10;99.90
3190;DHT22;1606;51.946;10.558;2024-01-16T07:00:23;3.20;99.90
3190;DHT22;1606;51.946;10.558;2024-01-16T07:02:52;3.20;99.90
3190;DHT22;1606;51.946;10.558;2024-01-16T07:05:21;3.20;99.90
3190;DHT22;1606;51.946;10.558;2024-01-16T07:07:49;3.20;99.90
3190;DHT22;1606;51.946;10.558;2024-01-16T07:10:17;3.30;99.90
3190;DHT22;1606;51.946;10.558;2024-01-16T07:12:45;3.20;99.90
3190;DHT22;1606;51.946;10.558;2024-01-16T07:15:13;3.00;99.90
3190;DHT22;1606;51.946;10.558;2024-01-16T07:17:43;3.10;99.90
3190;DHT22;1606;51.946;10.558;2024-01-16T07:20:11;3.30;99.90
3190;DHT22;1606;51.946;10.558;2024-01-16T07:22:39;3.40;99.90
3190;DHT22;1606;51.946;10.558;2024-01-16T07:25:07;3.50;99.90
3190;DHT22;1606;51.946;10.558;2024-01-16T07:27:35;3.60;99.90
3190;DHT22;1606;51.946;10.558;2024-01-16T07:30:05;3.60;99.90
3190;DHT22;1606;51.946;10.558;2024-01-16T07:32:33;3.40;99.90
3190;DHT22;1606;51.946;10.558;2024-01-16T07:35:03;3.40;99.90
3190;DHT22;1606;51.946;10.558;2024-01-16T07:37:31;3.30;99.90
3190;DHT22;1606;51.946;10.558;2024-01-16T07:40:01;3.40;99.90
3190;DHT22;1606;51.946;10.558;2024-01-16T07:42:32;3.50;99.90
3190;DHT22;1606;51.946;10.558;2024-01-16T07:45:01;3.30;99.90
3190;DHT22;1606;51.946;10.558;2024-01-16T07:47:31;3.30;99.90
3190;DHT22;1606;51.946;10.558;2024-01-16T07:49:59;3.40;99.90
3190;DHT22;1606;51.946;10.558;2024-01-16T07:52:33;3.40;99.90
3190;DHT22;1606;51.946;10.558;2024-01-16T07:55:01;3.60;99.90
3190;DHT22;1606;51.946;10.558;2024-01-16T07:57:30;3.70;99.90
3190;DHT22;1606;51.946;10.558;2024-01-16T07:59:58;3.50;99.90
3190;DHT22;1606;51.946;10.558;2024-01-16T08:02:31;3.60;99.90
3190;DHT22;1606;51.946;10.558;2024-01-16T08:05:00;3.80;99.90
3190;DHT22;1606;51.946;10.558;2024-01-16T08:07:28;3.70;99.90
3190;DHT22;1606;51.946;10.558;2024-01-16T08:09:57;3.70;99.90
3190;DHT22;1606;51.946;10.558;2024-01-16T08:12:25;3.50;99.90
3190;DHT22;1606;51.946;10.558;2024-01-16T08:14:53;3.50;99.90
3190;DHT22;1606;51.946;10.558;2024-01-16T08:17:21;3.60;99.90
3190;DHT22;1606;51.946;10.558;2024-01-16T08:19:49;3.70;99.90
3190;DHT22;1606;51.946;10.558;2024-01-16T08:22:19;3.70;99.90
3190;DHT22;1606;51.946;10.558;2024-01-16T08:24:47;3.70;99.90
3190;DHT22;1606;51.946;10.558;2024-01-16T08:27:16;3.90;99.90
3190;DHT22;1606;51.946;10.558;2024-01-16T08:29:44;4.00;99.90
3190;DHT22;1606;51.946;10.558;2024-01-16T08:32:14;4.00;99.90
3190;DHT22;1606;51.946;10.558;2024-01-16T08:34:42;4.00;99.90
3190;DHT22;1606;51.946;10.558;2024-01-16T08:37:10;4.00;99.90
3190;DHT22;1606;51.946;10.558;2024-01-16T08:39:38;3.80;99.90
3190;DHT22;1606;51.946;10.558;2024-01-16T08:42:06;3.80;99.90
3190;DHT22;1606;51.946;10.558;2024-01-16T08:44:36;3.80;99.90
3190;DHT22;1606;51.946;10.558;2024-01-16T08:47:04;3.80;99.90
3190;DHT22;1606;51.946;10.558;2024-01-16T08:49:32;3.90;99.90
3190;DHT22;1606;51.946;10.558;2024-01-16T08:52:01;3.80;99.90
3190;DHT22;1606;51.946;10.558;2024-01-16T08:54:29;3.70;99.90
3190;DHT22;1606;51.946;10.558;2024-01-16T08:56:57;3.80;99.90
3190;DHT22;1606;51.946;10.558;2024-01-16T08:59:25;3.90;99.90
3190;DHT22;1606;51.946;10.558;2024-01-16T09:01:56;3.80;99.90
3190;DHT22;1606;51.946;10.558;2024-01-16T09:04:24;3.90;99.90
3190;DHT22;1606;51.946;10.558;2024-01-16T09:06:51;3.90;99.90
3190;DHT22;1606;51.946;10.558;2024-01-16T09:09:20;4.10;99.90
3190;DHT22;1606;51.946;10.558;2024-01-16T09:11:48;4.30;99.90
3190;DHT22;1606;51.946;10.558;2024-01-16T09:14:15;4.20;99.90
3190;DHT22;1606;51.946;10.558;2024-01-16T09:16:43;4.00;99.90
3190;DHT22;1606;51.946;10.558;2024-01-16T09:19:13;3.70;99.90
3190;DHT22;1606;51.946;10.558;2024-01-16T09:21:41;3.80;99.90
3190;DHT22;1606;51.946;10.558;2024-01-16T09:24:11;4.00;99.90
3190;DHT22;1606;51.946;10.558;2024-01-16T09:26:40;4.20;99.90
3190;DHT22;1606;51.946;10.558;2024-01-16T09:29:13;4.10;99.90
3190;DHT22;1606;51.946;10.558;2024-01-16T09:31:42;4.00;99.90
3190;DHT22;1606;51.946;10.558;2024-01-16T09:34:12;4.00;99.90
3190;DHT22;1606;51.946;10.558;2024-01-16T09:36:41;3.80;99.90
3190;DHT22;1606;51.946;10.558;2024-01-16T09:39:09;3.90;99.90
3190;DHT22;1606;51.946;10.558;2024-01-16T09:41:37;4.00;99.90
3190;DHT22;1606;51.946;10.558;2024-01-16T09:44:06;4.20;99.90
3190;DHT22;1606;51.946;10.558;2024-01-16T09:46:37;4.00;99.90
3190;DHT22;1606;51.946;10.558;2024-01-16T09:49:05;4.00;99.90
3190;DHT22;1606;51.946;10.558;2024-01-16T09:51:35;4.00;99.90
3190;DHT22;1606;51.946;10.558;2024-01-16T09:54:03;3.70;99.90
3190;DHT22;1606;51.946;10.558;2024-01-16T09:56:37;4.00;99.90
3190;DHT22;1606;51.946;10.558;2024-01-16T09:59:09;4.00;99.90
3190;DHT22;1606;51.946;10.558;2024-01-16T10:01:38;4.00;99.90
3190;DHT22;1606;51.946;10.558;2024-01-16T10:04:05;4.10;99.90
3190;DHT22;1606;51.946;10.558;2024-01-16T10:06:37;4.20;99.90
3190;DHT22;1606;51.946;10.558;2024-01-16T10:09:05;4.20;99.90
3190;DHT22;1606;51.946;10.558;2024-01-16T10:11:33;4.10;99.90
3190;DHT22;1606;51.946;10.558;2024-01-16T10:14:01;4.10;99.90
3190;DHT22;1606;51.946;10.558;2024-01-16T10:16:57;4.20;99.90
3190;DHT22;1606;51.946;10.558;2024-01-16T10:19:27;4.20;99.90
3190;DHT22;1606;51.946;10.558;2024-01-16T10:22:13;4.10;99.90
3190;DHT22;1606;51.946;10.558;2024-01-16T10:24:41;4.10;99.90
3190;DHT22;1606;51.946;10.558;2024-01-16T10:27:09;4.30;99.90
3190;DHT22;1606;51.946;10.558;2024-01-16T10:29:37;4.30;99.90
3190;DHT22;1606;51.946;10.558;2024-01-16T10:32:27;4.30;99.90
3190;DHT22;1606;51.946;10.558;2024-01-16T10:35:06;4.20;99.90
3190;DHT22;1606;51.946;10.558;2024-01-16T10:37:43;4.20;99.90
3190;DHT22;1606;51.946;10.558;2024-01-16T10:40:15;4.30;99.90
3190;DHT22;1606;51.946;10.558;2024-01-16T10:42:47;4.30;99.90
3190;DHT22;1606;51.946;10.558;2024-01-16T10:45:24;4.30;99.90
3190;DHT22;1606;51.946;10.558;2024-01-16T10:48:00;4.30;99.90
3190;DHT22;1606;51.946;10.558;2024-01-16T10:50:29;4.40;99.90
3190;DHT22;1606;51.946;10.558;2024-01-16T10:53:00;4.30;99.90
3190;DHT22;1606;51.946;10.558;2024-01-16T10:55:28;4.20;99.90
3190;DHT22;1606;51.946;10.558;2024-01-16T10:57:57;4.30;99.90
3190;DHT22;1606;51.946;10.558;2024-01-16T11:00:28;4.60;99.90
3190;DHT22;1606;51.946;10.558;2024-01-16T11:03:05;4.50;99.90
3190;DHT22;1606;51.946;10.558;2024-01-16T11:05:34;4.40;99.90
3190;DHT22;1606;51.946;10.558;2024-01-16T11:08:05;4.60;99.90
3190;DHT22;1606;51.946;10.558;2024-01-16T11:10:35;4.60;99.90
3190;DHT22;1606;51.946;10.558;2024-01-16T11:13:05;4.60;99.90
3190;DHT22;1606;51.946;10.558;2024-01-16T11:15:34;4.70;99.90
3190;DHT22;1606;51.946;10.558;2024-01-16T11:18:03;4.60;99.90
3190;DHT22;1606;51.946;10.558;2024-01-16T11:20:32;4.60;99.90
3190;DHT22;1606;51.946;10.558;2024-01-16T11:23:23;4.80;99.90
3190;DHT22;1606;51.946;10.558;2024-01-16T11:25:51;4.60;99.90
3190;DHT22;1606;51.946;10.558;2024-01-16T11:28:19;4.50;99.90
3190;DHT22;1606;51.946;10.558;2024-01-16T11:30:48;4.50;99.90
3190;DHT22;1606;51.946;10.558;2024-01-16T11:39:26;4.60;99.90
3190;DHT22;1606;51.946;10.558;2024-01-16T11:41:55;4.70;99.90
3190;DHT22;1606;51.946;10.558;2024-01-16T11:44:41;4.80;99.90
3190;DHT22;1606;51.946;10.558;2024-01-16T11:47:15;4.80;99.90
3190;DHT22;1606;51.946;10.558;2024-01-16T11:49:43;4.80;99.90
3190;DHT22;1606;51.946;10.558;2024-01-16T11:52:11;5.00;99.90
3190;DHT22;1606;51.946;10.558;2024-01-16T11:54:41;4.70;99.90
3190;DHT22;1606;51.946;10.558;2024-01-16T11:57:27;4.80;99.90
3190;DHT22;1606;51.946;10.558;2024-01-16T11:59:59;4.80;99.90
3190;DHT22;1606;51.946;10.558;2024-01-16T12:02:38;5.00;99.90
3190;DHT22;1606;51.946;10.558;2024-01-16T12:05:10;5.10;99.90
3190;DHT22;1606;51.946;10.558;2024-01-16T12:07:46;4.70;99.90
3190;DHT22;1606;51.946;10.558;2024-01-16T12:10:17;4.40;99.90
3190;DHT22;1606;51.946;10.558;2024-01-16T12:12:46;4.60;99.90
3190;DHT22;1606;51.946;10.558;2024-01-16T12:15:16;4.70;99.90
3190;DHT22;1606;51.946;10.558;2024-01-16T12:17:54;4.80;99.90
3190;DHT22;1606;51.946;10.558;2024-01-16T12:20:24;4.90;99.90
3190;DHT22;1606;51.946;10.558;2024-01-16T12:22:54;5.10;99.90
3190;DHT22;1606;51.946;10.558;2024-01-16T12:25:23;5.20;99.90
3190;DHT22;1606;51.946;10.558;2024-01-16T12:28:11;4.90;99.90
3190;DHT22;1606;51.946;10.558;2024-01-16T12:30:57;4.70;99.90
3190;DHT22;1606;51.946;10.558;2024-01-16T12:33:25;4.80;99.90
3190;DHT22;1606;51.946;10.558;2024-01-16T12:36:01;4.60;99.90
3190;DHT22;1606;51.946;10.558;2024-01-16T12:38:31;4.70;99.90
3190;DHT22;1606;51.946;10.558;2024-01-16T12:41:01;4.50;99.90
3190;DHT22;1606;51.946;10.558;2024-01-16T12:43:31;4.60;99.90
3190;DHT22;1606;51.946;10.558;2024-01-16T12:45:59;4.60;99.90
3190;DHT22;1606;51.946;10.558;2024-01-16T12:48:27;4.60;99.90
3190;DHT22;1606;51.946;10.558;2024-01-16T12:50:59;4.80;99.90
3190;DHT22;1606;51.946;10.558;2024-01-16T12:53:28;4.80;99.90
3190;DHT22;1606;51.946;10.558;2024-01-16T12:56:01;4.50;99.90
3190;DHT22;1606;51.946;10.558;2024-01-16T12:58:32;4.50;99.90
3190;DHT22;1606;51.946;10.558;2024-01-16T13:01:24;4.40;99.90
3190;DHT22;1606;51.946;10.558;2024-01-16T13:03:55;4.60;99.90
3190;DHT22;1606;51.946;10.558;2024-01-16T13:06:23;4.50;99.90
3190;DHT22;1606;51.946;10.558;2024-01-16T13:09:04;4.50;99.90
3190;DHT22;1606;51.946;10.558;2024-01-16T13:11:50;4.50;99.90
3190;DHT22;1606;51.946;10.558;2024-01-16T13:14:20;4.40;99.90
3190;DHT22;1606;51.946;10.558;2024-01-16T13:16:49;4.40;99.90
3190;DHT22;1606;51.946;10.558;2024-01-16T13:19:17;4.30;99.90
3190;DHT22;1606;51.946;10.558;2024-01-16T13:21:48;4.40;99.90
3190;DHT22;1606;51.946;10.558;2024-01-16T13:24:17;4.40;99.90
3190;DHT22;1606;51.946;10.558;2024-01-16T13:26:50;4.50;99.90
3190;DHT22;1606;51.946;10.558;2024-01-16T13:29:18;4.20;99.90
3190;DHT22;1606;51.946;10.558;2024-01-16T13:31:47;4.10;99.90
3190;DHT22;1606;51.946;10.558;2024-01-16T13:34:15;4.10;99.90
3190;DHT22;1606;51.946;10.558;2024-01-16T13:36:45;4.00;99.90
3190;DHT22;1606;51.946;10.558;2024-01-16T13:39:32;4.10;99.90
3190;DHT22;1606;51.946;10.558;2024-01-16T13:42:06;4.30;99.90
3190;DHT22;1606;51.946;10.558;2024-01-16T13:44:34;4.50;99.90
3190;DHT22;1606;51.946;10.558;2024-01-16T13:47:02;4.70;99.90
3190;DHT22;1606;51.946;10.558;2024-01-16T13:49:37;4.60;99.90
3190;DHT22;1606;51.946;10.558;2024-01-16T13:52:07;4.40;99.90
3190;DHT22;1606;51.946;10.558;2024-01-16T13:54:37;4.50;99.90
3190;DHT22;1606;51.946;10.558;2024-01-16T13:57:07;4.20;99.90
3190;DHT22;1606;51.946;10.558;2024-01-16T13:59:42;4.20;99.90
3190;DHT22;1606;51.946;10.558;2024-01-16T14:02:10;4.10;99.90
3190;DHT22;1606;51.946;10.558;2024-01-16T14:04:39;4.40;99.90
3190;DHT22;1606;51.946;10.558;2024-01-16T14:07:07;4.50;99.90
3190;DHT22;1606;51.946;10.558;2024-01-16T14:09:40;4.50;99.90
3190;DHT22;1606;51.946;10.558;2024-01-16T14:12:12;4.60;99.90
3190;DHT22;1606;51.946;10.558;2024-01-16T14:14:41;4.70;99.90
3190;DHT22;1606;51.946;10.558;2024-01-16T14:17:09;4.70;99.90
3190;DHT22;1606;51.946;10.558;2024-01-16T14:19:37;4.40;99.90
3190;DHT22;1606;51.946;10.558;2024-01-16T14:22:06;4.50;99.90
3190;DHT22;1606;51.946;10.558;2024-01-16T14:24:34;4.50;99.90
3190;DHT22;1606;51.946;10.558;2024-01-16T14:27:04;4.50;99.90
3190;DHT22;1606;51.946;10.558;2024-01-16T14:29:37;4.60;99.90
3190;DHT22;1606;51.946;10.558;2024-01-16T14:32:06;4.60;99.90
3190;DHT22;1606;51.946;10.558;2024-01-16T14:34:34;4.60;99.90
3190;DHT22;1606;51.946;10.558;2024-01-16T14:37:03;4.70;99.90
3190;DHT22;1606;51.946;10.558;2024-01-16T14:39:31;4.30;99.90
3190;DHT22;1606;51.946;10.558;2024-01-16T14:41:59;4.30;99.90
3190;DHT22;1606;51.946;10.558;2024-01-16T14:44:29;4.50;99.90
3190;DHT22;1606;51.946;10.558;2024-01-16T14:46:58;4.50;99.90
3190;DHT22;1606;51.946;10.558;2024-01-16T14:49:26;4.20;99.90
3190;DHT22;1606;51.946;10.558;2024-01-16T14:51:58;4.20;99.90
3190;DHT22;1606;51.946;10.558;2024-01-16T14:54:28;4.50;99.90
3190;DHT22;1606;51.946;10.558;2024-01-16T14:56:56;4.60;99.90
3190;DHT22;1606;51.946;10.558;2024-01-16T14:59:24;4.50;99.90
3190;DHT22;1606;51.946;10.558;2024-01-16T15:01:52;4.40;99.90
3190;DHT22;1606;51.946;10.558;2024-01-16T15:04:22;4.30;99.90
3190;DHT22;1606;51.946;10.558;2024-01-16T15:06:50;4.40;99.90
3190;DHT22;1606;51.946;10.558;2024-01-16T15:09:19;4.40;99.90
3190;DHT22;1606;51.946;10.558;2024-01-16T15:11:48;4.50;99.90
3190;DHT22;1606;51.946;10.558;2024-01-16T15:14:16;4.30;99.90
3190;DHT22;1606;51.946;10.558;2024-01-16T15:16:44;4.40;99.90
3190;DHT22;1606;51.946;10.558;2024-01-16T15:19:12;4.40;99.90
3190;DHT22;1606;51.946;10.558;2024-01-16T15:21:42;4.40;99.90
3190;DHT22;1606;51.946;10.558;2024-01-16T15:24:12;4.40;99.90
3190;DHT22;1606;51.946;10.558;2024-01-16T15:26:46;4.40;99.90
3190;DHT22;1606;51.946;10.558;2024-01-16T15:29:16;4.30;99.90
3190;DHT22;1606;51.946;10.558;2024-01-16T15:31:44;4.30;99.90
3190;DHT22;1606;51.946;10.558;2024-01-16T15:34:12;4.30;99.90
3190;DHT22;1606;51.946;10.558;2024-01-16T15:36:44;4.30;99.90
3190;DHT22;1606;51.946;10.558;2024-01-16T15:39:13;4.30;99.90
3190;DHT22;1606;51.946;10.558;2024-01-16T15:41:43;4.20;99.90
3190;DHT22;1606;51.946;10.558;2024-01-16T15:44:11;4.10;99.90
3190;DHT22;1606;51.946;10.558;2024-01-16T15:46:57;4.10;99.90
3190;DHT22;1606;51.946;10.558;2024-01-16T15:49:26;4.10;99.90
3190;DHT22;1606;51.946;10.558;2024-01-16T15:51:57;4.00;99.90
3190;DHT22;1606;51.946;10.558;2024-01-16T15:54:25;3.90;99.90
3190;DHT22;1606;51.946;10.558;2024-01-16T15:56:54;4.00;99.90
3190;DHT22;1606;51.946;10.558;2024-01-16T15:59:23;4.00;99.90
3190;DHT22;1606;51.946;10.558;2024-01-16T16:01:50;4.10;99.90
3190;DHT22;1606;51.946;10.558;2024-01-16T16:04:18;4.20;99.90
3190;DHT22;1606;51.946;10.558;2024-01-16T16:06:46;4.30;99.90
3190;DHT22;1606;51.946;10.558;2024-01-16T16:09:16;4.50;99.90
3190;DHT22;1606;51.946;10.558;2024-01-16T16:11:44;4.60;99.90
3190;DHT22;1606;51.946;10.558;2024-01-16T16:14:13;4.50;99.90
3190;DHT22;1606;51.946;10.558;2024-01-16T16:16:42;4.50;99.90
3190;DHT22;1606;51.946;10.558;2024-01-16T16:19:10;4.50;99.90
3190;DHT22;1606;51.946;10.558;2024-01-16T16:21:39;4.50;99.90
3190;DHT22;1606;51.946;10.558;2024-01-16T16:24:08;4.50;99.90